Time;durP1;ratioP1;P1;durP2;ratioP2;P2;SDS_P1;SDS_P2;PMS_P1;PMS_P2;Temp;Humidity;BMP_temperature;BMP_pressure;BME280_temperature;BME280_humidity;BME280_pressure;Samples;Min_cycle;Max_cycle;Signal;HPM_P1;HPM_P2
2021/06/19 00:02:13;;;;;;;3.55;1.92;;;;;;;19.87;70.16;100569.95;1728175;80;21047;-75
2021/06/19 00:04:39;;;;;;;3.80;1.60;;;;;;;19.89;69.74;100564.77;1739766;79;21007;-76
2021/06/19 00:07:06;;;;;;;4.17;1.67;;;;;;;19.90;69.26;100570.45;1721936;79;21028;-77
2021/06/19 00:09:33;;;;;;;2.65;1.80;;;;;;;19.93;68.92;100559.37;1740049;79;21550;-75
2021/06/19 00:12:00;;;;;;;4.67;1.75;;;;;;;19.91;68.74;100559.23;1741794;78;21786;-75
2021/06/19 00:14:27;;;;;;;4.67;1.90;;;;;;;19.91;68.73;100553.86;1744104;79;21048;-75
2021/06/19 00:16:54;;;;;;;7.00;2.30;;;;;;;19.86;68.61;100549.02;1770185;79;21015;-75
2021/06/19 00:19:20;;;;;;;5.72;2.00;;;;;;;19.85;68.63;100556.73;1759437;79;21137;-75
2021/06/19 00:21:48;;;;;;;5.08;1.82;;;;;;;19.84;68.64;100549.71;1748064;79;21062;-76
2021/06/19 00:24:23;;;;;;;5.70;1.77;;;;;;;19.83;68.67;100549.89;1761191;79;21746;-76
2021/06/19 00:26:49;;;;;;;5.80;1.80;;;;;;;19.79;68.70;100548.59;1757925;79;21628;-76
2021/06/19 00:29:16;;;;;;;3.33;2.00;;;;;;;19.74;68.93;100546.42;1748387;79;21390;-76
2021/06/19 00:31:43;;;;;;;4.10;1.85;;;;;;;19.69;69.06;100541.61;1760808;79;21526;-76
2021/06/19 00:34:11;;;;;;;4.30;1.55;;;;;;;19.66;69.18;100551.32;1763645;79;21055;-76
2021/06/19 00:36:37;;;;;;;4.40;1.80;;;;;;;19.62;69.33;100550.02;1716396;82;21780;-75
2021/06/19 00:39:04;;;;;;;4.15;1.70;;;;;;;19.59;69.55;100546.84;1766271;78;21043;-76
2021/06/19 00:41:34;;;;;;;5.33;1.80;;;;;;;19.55;69.69;100553.54;1732771;80;21059;-76
2021/06/19 00:44:04;;;;;;;3.85;1.80;;;;;;;19.52;69.80;100548.55;1726831;80;21105;-75
2021/06/19 00:46:31;;;;;;;4.70;1.90;;;;;;;19.50;69.94;100554.59;1757644;79;20983;-77
2021/06/19 00:48:57;;;;;;;4.80;1.90;;;;;;;19.46;70.06;100544.70;1745082;79;21880;-76
2021/06/19 00:51:24;;;;;;;4.17;1.90;;;;;;;19.43;70.24;100544.56;1742989;80;21072;-76
2021/06/19 00:53:50;;;;;;;6.70;1.85;;;;;;;19.37;70.47;100539.89;1722133;82;21031;-75
2021/06/19 00:56:17;;;;;;;4.47;1.70;;;;;;;19.32;70.60;100537.42;1750932;79;20976;-76
2021/06/19 00:58:43;;;;;;;3.77;2.00;;;;;;;19.27;70.84;100538.44;1740120;80;21458;-76
2021/06/19 01:01:10;;;;;;;4.35;1.85;;;;;;;19.23;70.96;100539.30;1760560;79;22680;-75
2021/06/19 01:03:36;;;;;;;4.50;2.10;;;;;;;19.19;71.12;100537.96;1731708;80;21399;-75
2021/06/19 01:06:04;;;;;;;5.60;1.82;;;;;;;19.12;71.34;100529.81;1701949;83;21004;-76
2021/06/19 01:08:30;;;;;;;6.30;2.05;;;;;;;19.10;71.45;100539.00;1753161;79;21415;-76
2021/06/19 01:10:59;;;;;;;4.03;1.92;;;;;;;19.07;71.55;100539.35;1731493;80;21443;-76
2021/06/19 01:13:25;;;;;;;4.75;1.70;;;;;;;19.08;71.52;100545.87;1715807;80;21806;-76
2021/06/19 01:15:53;;;;;;;4.78;1.87;;;;;;;19.07;71.56;100542.86;1710158;82;21074;-76
2021/06/19 01:18:20;;;;;;;4.70;2.00;;;;;;;19.07;71.54;100541.52;1738595;81;21083;-76
2021/06/19 01:20:46;;;;;;;6.85;1.90;;;;;;;19.08;71.54;100545.87;1678426;82;21073;-76
2021/06/19 01:23:12;;;;;;;3.22;1.62;;;;;;;19.08;71.51;100544.53;1741728;79;21102;-76
2021/06/19 01:25:39;;;;;;;4.15;2.00;;;;;;;19.09;71.50;100540.01;1760022;79;21803;-76
2021/06/19 01:28:10;;;;;;;3.17;1.55;;;;;;;19.08;71.50;100542.36;1744703;79;21081;-76
2021/06/19 01:30:34;;;;;;;4.90;2.00;;;;;;;19.06;71.54;100541.70;1716168;80;21170;-76
2021/06/19 01:33:00;;;;;;;4.53;1.60;;;;;;;19.03;71.60;100540.22;1724144;80;21063;-76
2021/06/19 01:35:27;;;;;;;3.30;1.87;;;;;;;19.03;71.58;100536.70;1734234;80;21090;-76
2021/06/19 01:37:57;;;;;;;3.47;1.70;;;;;;;19.05;71.53;100543.55;1745666;79;21767;-76
2021/06/19 01:40:29;;;;;;;5.92;2.70;;;;;;;19.07;71.60;100546.05;1749288;79;20992;-76
2021/06/19 01:42:56;;;;;;;6.30;1.82;;;;;;;19.03;71.64;100548.75;1751501;79;21016;-75
2021/06/19 01:45:26;;;;;;;5.53;1.70;;;;;;;19.03;71.62;100552.77;1754761;80;21692;-75
2021/06/19 01:47:53;;;;;;;6.83;1.70;;;;;;;19.04;71.66;100551.25;1752606;78;21053;-75
2021/06/19 01:50:23;;;;;;;3.27;1.65;;;;;;;19.04;71.72;100555.77;1759859;79;21778;-75
2021/06/19 01:52:50;;;;;;;3.62;1.67;;;;;;;19.03;71.75;100555.44;1755668;80;20968;-75
2021/06/19 01:55:17;;;;;;;3.52;1.90;;;;;;;19.04;71.79;100555.77;1769642;79;20964;-75
2021/06/19 01:57:44;;;;;;;2.70;1.70;;;;;;;19.03;71.79;100559.45;1758575;79;21059;-75
2021/06/19 02:00:20;;;;;;;3.90;1.90;;;;;;;19.02;71.77;100557.80;1756839;79;21126;-75
2021/06/19 02:02:46;;;;;;;7.47;1.75;;;;;;;19.02;71.73;100557.80;1744943;80;21799;-75
2021/06/19 02:05:14;;;;;;;3.92;1.65;;;;;;;19.03;71.73;100564.81;1727544;80;20984;-75
2021/06/19 02:07:54;;;;;;;6.22;2.02;;;;;;;19.01;71.72;100564.12;1760854;78;21024;-76
2021/06/19 02:10:24;;;;;;;4.62;1.80;;;;;;;19.02;71.72;100565.83;1757495;78;21691;-76
2021/06/19 02:12:51;;;;;;;5.08;1.92;;;;;;;19.02;71.66;100569.84;1764558;79;20977;-75
2021/06/19 02:15:19;;;;;;;5.78;2.20;;;;;;;19.02;71.75;100565.83;1742099;80;20956;-75
2021/06/19 02:17:46;;;;;;;4.50;1.98;;;;;;;18.99;71.87;100566.14;1741027;80;21448;-76
2021/06/19 02:20:14;;;;;;;3.15;2.00;;;;;;;18.98;71.85;100573.34;1743221;79;21446;-75
2021/06/19 02:22:40;;;;;;;6.20;2.02;;;;;;;18.97;71.96;100567.66;1745326;79;21421;-75
2021/06/19 02:25:10;;;;;;;3.25;1.95;;;;;;;18.96;71.91;100567.84;1765917;79;20968;-76
2021/06/19 02:27:40;;;;;;;6.58;2.10;;;;;;;18.98;71.89;100569.83;1739708;78;21809;-76
2021/06/19 02:30:08;;;;;;;4.28;2.08;;;;;;;18.98;71.87;100567.98;1745448;79;21430;-75
2021/06/19 02:32:34;;;;;;;3.72;2.00;;;;;;;19.00;71.80;100574.50;1760643;78;21110;-76
2021/06/19 02:35:01;;;;;;;5.55;2.15;;;;;;;19.00;71.83;100581.20;1742838;79;21103;-75
2021/06/19 02:37:27;;;;;;;3.27;1.92;;;;;;;19.01;71.79;100580.19;1761746;79;20983;-76
2021/06/19 02:39:54;;;;;;;5.22;1.98;;;;;;;19.01;71.84;100578.38;1749827;78;21811;-76
2021/06/19 02:42:20;;;;;;;4.45;2.05;;;;;;;19.03;71.75;100584.38;1747162;79;21052;-76
2021/06/19 02:44:47;;;;;;;3.85;1.87;;;;;;;19.05;71.77;100582.87;1731171;80;21027;-76
2021/06/19 02:47:14;;;;;;;4.12;2.00;;;;;;;19.08;71.77;100583.86;1744965;78;21106;-75
2021/06/19 02:49:41;;;;;;;3.92;1.77;;;;;;;19.08;71.78;100593.23;1755898;80;20921;-76
2021/06/19 02:52:09;;;;;;;3.12;1.82;;;;;;;19.08;71.77;100591.38;1737947;79;21799;-75
2021/06/19 02:54:40;;;;;;;5.17;1.77;;;;;;;19.09;71.79;100589.03;1734103;79;21012;-76
2021/06/19 02:57:04;;;;;;;2.77;1.90;;;;;;;19.10;71.78;100583.17;1738519;79;21028;-76
2021/06/19 02:59:31;;;;;;;2.95;1.87;;;;;;;19.11;71.78;100593.73;1754695;80;21423;-76
2021/06/19 03:01:57;;;;;;;5.42;1.70;;;;;;;19.12;71.88;100594.06;1764585;80;21070;-76
2021/06/19 03:04:24;;;;;;;8.08;2.08;;;;;;;19.13;71.90;100602.94;1741469;79;21813;-76
2021/06/19 03:06:51;;;;;;;4.85;1.82;;;;;;;19.14;71.88;100604.59;1768670;80;21172;-76
2021/06/19 03:09:17;;;;;;;5.08;2.05;;;;;;;19.18;71.84;100603.73;1747018;79;21087;-76
2021/06/19 03:11:43;;;;;;;5.17;1.75;;;;;;;19.19;71.80;100612.10;1758994;78;21139;-76
2021/06/19 03:14:10;;;;;;;4.10;1.62;;;;;;;19.21;71.79;100602.08;1762103;79;20956;-75
2021/06/19 03:16:36;;;;;;;5.00;1.82;;;;;;;19.22;71.85;100607.77;1773921;79;21775;-76
2021/06/19 03:19:06;;;;;;;6.53;1.95;;;;;;;19.22;71.91;100607.77;1764383;79;21035;-75
2021/06/19 03:21:33;;;;;;;4.65;1.70;;;;;;;19.22;71.96;100606.42;1736080;79;21114;-76
2021/06/19 03:24:00;;;;;;;4.97;1.95;;;;;;;19.23;72.05;100608.09;1739448;79;21013;-76
2021/06/19 03:26:26;;;;;;;4.33;2.02;;;;;;;19.25;72.11;100610.09;1716067;80;21085;-76
2021/06/19 03:28:53;;;;;;;7.03;2.20;;;;;;;19.29;72.14;100617.59;1747314;79;22183;-76
2021/06/19 03:31:19;;;;;;;5.60;1.95;;;;;;;19.33;72.24;100618.09;1747956;80;20974;-76
2021/06/19 03:33:46;;;;;;;7.92;2.08;;;;;;;19.35;72.29;100622.27;1734763;81;21008;-75
2021/06/19 03:36:12;;;;;;;5.65;1.92;;;;;;;19.41;72.45;100618.08;1779487;80;20928;-76
2021/06/19 03:38:39;;;;;;;5.58;1.90;;;;;;;19.47;72.45;100620.55;1760089;79;21046;-76
2021/06/19 03:41:06;;;;;;;4.67;1.90;;;;;;;19.53;72.40;100617.19;1758976;78;21789;-76
2021/06/19 03:43:32;;;;;;;4.85;1.87;;;;;;;19.60;72.22;100612.84;1758870;79;21051;-76
2021/06/19 03:45:59;;;;;;;5.45;2.00;;;;;;;19.66;71.97;100609.45;1747812;79;20976;-76
2021/06/19 03:48:25;;;;;;;4.83;1.80;;;;;;;19.72;71.68;100607.41;1766791;77;20988;-76
2021/06/19 03:50:52;;;;;;;3.70;1.82;;;;;;;19.81;71.57;100613.57;1747741;78;20962;-76
2021/06/19 03:53:18;;;;;;;5.08;2.02;;;;;;;19.88;71.41;100614.04;1755941;79;21719;-76
2021/06/19 03:55:46;;;;;;;6.53;2.20;;;;;;;19.96;71.22;100615.81;1757075;79;20956;-76
2021/06/19 03:58:13;;;;;;;4.87;1.95;;;;;;;20.03;71.13;100611.92;1719501;82;21090;-76
2021/06/19 04:00:41;;;;;;;9.75;2.15;;;;;;;20.10;70.94;100618.26;1702920;81;20969;-76
2021/06/19 04:03:08;;;;;;;5.05;2.42;;;;;;;20.18;70.87;100617.70;1730634;80;21016;-76
2021/06/19 04:05:34;;;;;;;8.48;2.35;;;;;;;20.27;70.64;100617.14;1737685;82;22019;-76
2021/06/19 04:08:01;;;;;;;6.75;2.08;;;;;;;20.37;70.60;100620.41;1688184;83;21266;-77
2021/06/19 04:10:28;;;;;;;6.37;2.12;;;;;;;20.47;70.33;100624.23;1702735;81;21096;-76
2021/06/19 04:12:55;;;;;;;4.33;2.08;;;;;;;20.55;70.19;100619.59;1700369;82;21098;-75
2021/06/19 04:15:21;;;;;;;4.37;2.10;;;;;;;20.63;69.93;100620.55;1719738;80;21059;-77
2021/06/19 04:17:48;;;;;;;4.40;1.90;;;;;;;20.68;69.51;100620.86;1736870;81;22238;-76
2021/06/19 04:20:15;;;;;;;4.40;2.10;;;;;;;20.72;69.49;100627.02;1724648;80;21003;-75
2021/06/19 04:22:43;;;;;;;3.05;2.00;;;;;;;20.80;69.43;100622.08;1739263;80;21067;-76
2021/06/19 04:25:11;;;;;;;4.53;1.90;;;;;;;20.82;68.68;100628.09;1737467;78;20996;-76
2021/06/19 04:27:42;;;;;;;10.93;2.25;;;;;;;20.80;68.79;100627.45;1765706;78;20980;-75
2021/06/19 04:30:11;;;;;;;3.67;2.12;;;;;;;20.83;68.92;100631.11;1748336;79;21808;-75
2021/06/19 04:32:39;;;;;;;5.65;2.42;;;;;;;20.90;68.89;100632.56;1758635;79;21007;-76
2021/06/19 04:35:06;;;;;;;5.58;2.42;;;;;;;20.96;68.90;100639.39;1767076;79;21012;-76
2021/06/19 04:37:33;;;;;;;3.67;2.37;;;;;;;21.01;68.87;100642.34;1749208;79;21213;-77
2021/06/19 04:40:09;;;;;;;4.25;2.47;;;;;;;21.06;68.59;100636.44;1768710;79;21130;-77
2021/06/19 04:42:38;;;;;;;5.12;2.47;;;;;;;21.10;68.46;100639.06;1755895;79;21825;-77
2021/06/19 04:45:06;;;;;;;7.15;2.30;;;;;;;21.13;68.17;100640.90;1763567;79;20885;-77
2021/06/19 04:47:35;;;;;;;3.87;2.30;;;;;;;21.13;67.87;100644.06;1767306;80;20984;-76
2021/06/19 04:50:03;;;;;;;7.50;2.05;;;;;;;21.13;67.88;100643.58;1770772;79;21054;-75
2021/06/19 04:52:33;;;;;;;3.92;2.40;;;;;;;21.13;67.73;100647.61;1744258;79;21090;-76
2021/06/19 04:55:00;;;;;;;4.70;2.25;;;;;;;21.11;67.62;100646.11;1726092;80;21891;-75
2021/06/19 04:57:26;;;;;;;6.22;2.55;;;;;;;21.04;67.39;100639.31;1730821;80;21024;-75
2021/06/19 04:59:53;;;;;;;4.37;2.42;;;;;;;20.96;67.67;100638.55;1727344;80;20984;-76
2021/06/19 05:02:19;;;;;;;4.60;2.27;;;;;;;20.93;67.89;100643.77;1771728;80;21008;-76
2021/06/19 05:04:45;;;;;;;6.08;2.42;;;;;;;20.96;68.19;100644.76;1732187;80;21636;-76
2021/06/19 05:07:12;;;;;;;5.70;2.40;;;;;;;21.00;68.27;100636.65;1745876;79;21563;-76
2021/06/19 05:09:40;;;;;;;5.35;2.10;;;;;;;21.02;68.29;100643.17;1755533;80;21348;-76
2021/06/19 05:12:08;;;;;;;6.83;2.33;;;;;;;21.04;68.48;100644.69;1743735;79;21286;-76
2021/06/19 05:14:36;;;;;;;7.70;2.40;;;;;;;21.06;68.55;100641.30;1749984;78;20971;-76
2021/06/19 05:17:03;;;;;;;7.62;2.62;;;;;;;21.12;68.55;100647.77;1739552;80;20989;-76
2021/06/19 05:19:31;;;;;;;8.20;2.70;;;;;;;21.18;68.55;100647.56;1711080;82;21770;-77
2021/06/19 05:21:58;;;;;;;7.30;2.50;;;;;;;21.23;68.55;100641.11;1720523;80;21115;-77
2021/06/19 05:24:25;;;;;;;7.25;2.92;;;;;;;21.25;68.49;100635.90;1733811;81;21071;-76
2021/06/19 05:26:51;;;;;;;3.45;2.47;;;;;;;21.25;68.15;100632.38;1730439;82;21126;-76
2021/06/19 05:29:18;;;;;;;8.03;2.40;;;;;;;21.22;68.21;100644.81;1730855;82;21124;-76
2021/06/19 05:31:45;;;;;;;9.70;2.87;;;;;;;21.26;68.50;100634.91;1741087;79;21812;-77
2021/06/19 05:34:11;;;;;;;7.35;2.35;;;;;;;21.32;68.47;100638.17;1725592;81;21098;-77
2021/06/19 05:36:38;;;;;;;5.55;2.40;;;;;;;21.38;68.56;100633.92;1748388;79;21034;-77
2021/06/19 05:39:05;;;;;;;7.90;2.65;;;;;;;21.43;68.69;100642.28;1742611;79;21002;-77
2021/06/19 05:41:33;;;;;;;5.50;2.50;;;;;;;21.48;68.34;100644.39;1768666;79;20920;-77
2021/06/19 05:44:00;;;;;;;4.95;2.47;;;;;;;21.46;68.38;100639.72;1755017;78;21844;-77
2021/06/19 05:46:27;;;;;;;8.25;2.80;;;;;;;21.50;68.32;100643.69;1756936;79;21039;-77
2021/06/19 05:48:57;;;;;;;11.63;2.98;;;;;;;21.53;68.27;100646.03;1736648;80;21052;-77
2021/06/19 05:51:22;;;;;;;5.78;2.50;;;;;;;21.55;68.30;100648.02;1746650;79;21001;-77
2021/06/19 05:53:48;;;;;;;6.30;2.50;;;;;;;21.59;68.40;100651.47;1730073;81;20979;-77
2021/06/19 05:56:15;;;;;;;6.35;2.60;;;;;;;21.66;68.62;100651.56;1750817;80;21823;-77
2021/06/19 05:58:41;;;;;;;3.70;2.58;;;;;;;21.71;68.41;100652.69;1753749;79;22184;-77
2021/06/19 06:01:08;;;;;;;6.58;3.00;;;;;;;21.76;68.26;100660.69;1758622;79;21660;-78
2021/06/19 06:03:34;;;;;;;5.80;2.92;;;;;;;21.76;67.61;100661.52;1753493;80;21462;-76
2021/06/19 06:06:01;;;;;;;8.03;3.20;;;;;;;21.69;67.56;100664.63;1765342;80;21040;-76
2021/06/19 06:08:28;;;;;;;7.65;3.17;;;;;;;21.70;67.77;100664.95;1742980;79;22656;-76
2021/06/19 06:10:54;;;;;;;6.58;2.98;;;;;;;21.71;67.55;100658.06;1747035;80;21581;-76
2021/06/19 06:13:21;;;;;;;4.10;3.10;;;;;;;21.75;67.83;100654.48;1722655;80;22332;-77
2021/06/19 06:15:47;;;;;;;7.55;2.83;;;;;;;21.82;67.52;100658.09;1782390;79;21051;-78
2021/06/19 06:18:15;;;;;;;6.40;2.80;;;;;;;21.86;67.49;100649.12;1749810;79;20964;-76
2021/06/19 06:20:41;;;;;;;5.80;3.12;;;;;;;21.93;67.51;100652.73;1763623;79;22610;-76
2021/06/19 06:23:08;;;;;;;5.85;2.80;;;;;;;22.00;67.63;100654.97;1735004;79;21162;-78
2021/06/19 06:25:35;;;;;;;5.97;3.20;;;;;;;22.10;67.27;100658.25;1771406;79;20941;-73
2021/06/19 06:28:01;;;;;;;10.48;2.87;;;;;;;22.13;66.82;100659.20;1750113;80;20947;-76
2021/06/19 06:30:29;;;;;;;8.28;3.12;;;;;;;22.20;66.66;100656.08;1772667;80;20929;-75
2021/06/19 06:32:55;;;;;;;11.10;3.25;;;;;;;22.24;66.38;100658.70;1755742;80;22527;-77
2021/06/19 06:35:22;;;;;;;6.35;2.95;;;;;;;22.30;66.80;100649.56;1767202;79;20909;-80
2021/06/19 06:37:48;;;;;;;4.47;3.15;;;;;;;22.39;66.69;100653.27;1746492;80;21181;-76
2021/06/19 06:40:15;;;;;;;5.45;2.95;;;;;;;22.43;65.78;100652.37;1761432;79;21027;-77
2021/06/19 06:42:41;;;;;;;4.40;2.98;;;;;;;22.42;66.02;100648.84;1738911;80;21086;-80
2021/06/19 06:45:10;;;;;;;5.47;2.92;;;;;;;22.52;66.04;100644.48;1747443;80;21753;-77
2021/06/19 06:47:38;;;;;;;10.43;3.02;;;;;;;22.56;65.64;100641.20;1744627;79;21036;-76
2021/06/19 06:50:07;;;;;;;4.97;2.85;;;;;;;22.64;65.57;100644.79;1752195;78;21431;-70
2021/06/19 06:52:34;;;;;;;5.58;2.85;;;;;;;22.73;65.37;100643.63;1758459;80;21407;-72
2021/06/19 06:55:03;;;;;;;4.45;2.65;;;;;;;22.82;64.24;100639.25;1779269;79;21051;-72
2021/06/19 06:57:30;;;;;;;8.20;2.87;;;;;;;22.92;64.17;100638.11;1766153;79;21797;-73
2021/06/19 06:59:56;;;;;;;7.90;3.00;;;;;;;23.00;64.15;100638.80;1761636;79;20973;-73
2021/06/19 07:02:23;;;;;;;6.50;2.70;;;;;;;23.06;64.43;100640.69;1740212;79;21082;-73
2021/06/19 07:04:50;;;;;;;6.65;2.80;;;;;;;23.05;64.47;100646.28;1726911;81;21098;-72
2021/06/19 07:07:17;;;;;;;6.22;3.10;;;;;;;23.11;64.42;100642.81;1712935;82;21115;-73
2021/06/19 07:09:44;;;;;;;5.25;2.62;;;;;;;23.12;64.03;100643.13;1717723;81;22232;-73
2021/06/19 07:12:12;;;;;;;5.72;3.10;;;;;;;23.11;63.66;100635.55;1751341;80;21090;-73
2021/06/19 07:14:40;;;;;;;5.53;2.70;;;;;;;23.16;63.80;100639.51;1749984;80;20967;-72
2021/06/19 07:17:09;;;;;;;7.55;3.08;;;;;;;23.22;63.91;100643.60;1729931;79;21004;-72
2021/06/19 07:19:36;;;;;;;4.45;2.65;;;;;;;23.32;64.22;100637.86;1743691;80;21031;-73
2021/06/19 07:22:04;;;;;;;6.10;2.60;;;;;;;23.44;64.45;100643.00;1762963;80;21818;-72
2021/06/19 07:24:30;;;;;;;4.65;2.35;;;;;;;23.56;63.34;100640.08;1734749;81;20935;-72
2021/06/19 07:26:57;;;;;;;5.08;2.50;;;;;;;23.64;62.43;100643.13;1745420;79;21028;-72
2021/06/19 07:29:24;;;;;;;9.15;2.95;;;;;;;23.62;61.71;100645.20;1728551;82;21527;-72
2021/06/19 07:31:51;;;;;;;7.37;2.27;;;;;;;23.61;61.70;100648.41;1717947;82;21178;-72
2021/06/19 07:34:18;;;;;;;6.33;2.20;;;;;;;23.64;61.05;100653.91;1725185;81;22178;-73
2021/06/19 07:36:45;;;;;;;6.05;2.55;;;;;;;23.65;60.86;100655.09;1738374;80;21074;-73
2021/06/19 07:39:14;;;;;;;4.50;2.77;;;;;;;23.73;61.08;100646.48;1748947;80;21024;-73
2021/06/19 07:41:41;;;;;;;7.47;2.75;;;;;;;23.81;61.33;100640.41;1748768;80;20969;-72
2021/06/19 07:44:08;;;;;;;10.15;2.70;;;;;;;23.89;61.22;100638.88;1771187;78;20912;-73
2021/06/19 07:46:36;;;;;;;5.47;2.70;;;;;;;23.96;61.52;100637.56;1761896;79;21825;-73
2021/06/19 07:49:03;;;;;;;8.45;2.90;;;;;;;24.07;61.39;100641.02;1745161;80;20979;-73
2021/06/19 07:51:30;;;;;;;4.83;2.95;;;;;;;24.18;61.69;100643.12;1744447;80;20977;-73
2021/06/19 07:53:56;;;;;;;6.65;3.00;;;;;;;24.25;61.32;100643.14;1743097;80;20968;-73
2021/06/19 07:56:25;;;;;;;6.17;2.85;;;;;;;24.28;61.34;100640.85;1758243;79;20952;-72
2021/06/19 07:58:52;;;;;;;9.85;3.08;;;;;;;24.42;62.38;100639.05;1749743;78;21835;-74
2021/06/19 08:01:18;;;;;;;4.03;2.85;;;;;;;24.61;61.79;100633.85;1763780;80;21497;-73
2021/06/19 08:03:45;;;;;;;8.93;3.10;;;;;;;24.73;60.45;100638.97;1761643;79;21074;-73
2021/06/19 08:06:13;;;;;;;5.42;2.72;;;;;;;24.74;60.04;100636.05;1727515;80;21012;-73
2021/06/19 08:08:40;;;;;;;6.60;2.98;;;;;;;24.80;60.10;100637.07;1744684;80;21083;-73
2021/06/19 08:11:06;;;;;;;6.50;3.27;;;;;;;24.86;59.70;100636.25;1709177;82;21777;-73
2021/06/19 08:13:34;;;;;;;7.62;2.77;;;;;;;24.86;59.99;100636.77;1726265;80;21444;-73
2021/06/19 08:16:03;;;;;;;4.47;2.95;;;;;;;24.85;59.58;100638.64;1751494;80;20948;-74
2021/06/19 08:18:29;;;;;;;6.50;3.12;;;;;;;24.86;59.99;100628.66;1731820;79;20976;-72
2021/06/19 08:20:56;;;;;;;6.17;3.60;;;;;;;24.88;59.32;100629.28;1761405;80;21062;-73
2021/06/19 08:23:22;;;;;;;8.03;3.87;;;;;;;24.80;59.70;100620.37;1738512;79;21793;-73
2021/06/19 08:25:49;;;;;;;8.68;3.50;;;;;;;24.85;60.29;100622.44;1754158;79;20968;-73
2021/06/19 08:28:15;;;;;;;5.95;3.60;;;;;;;24.94;60.20;100619.83;1760041;79;20980;-73
2021/06/19 08:30:42;;;;;;;5.75;3.55;;;;;;;25.04;60.32;100613.50;1743503;80;21176;-73
2021/06/19 08:33:09;;;;;;;7.20;4.12;;;;;;;25.15;60.69;100611.19;1762924;79;21011;-73
2021/06/19 08:35:35;;;;;;;7.17;4.22;;;;;;;25.26;59.59;100604.61;1772102;79;21727;-73
2021/06/19 08:38:02;;;;;;;6.78;3.85;;;;;;;25.35;59.78;100602.50;1746559;80;21089;-74
2021/06/19 08:40:31;;;;;;;9.23;3.65;;;;;;;25.43;58.74;100606.33;1741776;81;21059;-74
2021/06/19 08:42:57;;;;;;;6.37;3.65;;;;;;;25.37;58.52;100597.70;1737109;81;21016;-75
2021/06/19 08:45:24;;;;;;;8.60;3.67;;;;;;;25.37;59.00;100595.83;1744287;80;20968;-77
2021/06/19 08:47:51;;;;;;;8.35;3.72;;;;;;;25.48;59.37;100597.07;1708147;81;21799;-76
2021/06/19 08:50:18;;;;;;;7.03;4.25;;;;;;;25.65;59.43;100598.22;1717461;82;21047;-76
2021/06/19 08:52:45;;;;;;;8.18;4.85;;;;;;;25.84;59.23;100599.73;1767691;78;20932;-75
2021/06/19 08:55:17;;;;;;;9.65;4.72;;;;;;;25.95;57.12;100599.03;1751714;80;21055;-76
2021/06/19 08:57:45;;;;;;;9.30;4.50;;;;;;;26.02;57.54;100595.78;1743799;79;21046;-76
2021/06/19 09:00:13;;;;;;;7.42;4.60;;;;;;;26.15;57.21;100602.48;1739773;80;21835;-75
2021/06/19 09:02:39;;;;;;;6.67;3.90;;;;;;;26.19;56.84;100600.98;1727249;80;21008;-75
2021/06/19 09:05:10;;;;;;;9.08;4.33;;;;;;;26.31;57.79;100599.75;1763976;79;21414;-75
2021/06/19 09:07:47;;;;;;;7.00;4.33;;;;;;;26.44;56.79;100598.84;1754933;80;20987;-75
2021/06/19 09:10:35;;;;;;;5.42;3.62;;;;;;;26.50;57.33;100610.16;1724685;80;21090;-75
2021/06/19 09:13:11;;;;;;;7.25;3.65;;;;;;;26.61;56.05;100613.50;1724709;80;21906;-75
2021/06/19 09:15:46;;;;;;;10.40;4.03;;;;;;;26.54;56.71;100610.04;1745268;80;20952;-75
2021/06/19 09:18:19;;;;;;;6.85;4.30;;;;;;;26.55;56.99;100621.70;1729587;80;20991;-76
2021/06/19 09:21:01;;;;;;;8.73;4.70;;;;;;;26.52;56.84;100616.18;1762277;79;21035;-77
2021/06/19 09:23:43;;;;;;;7.33;3.80;;;;;;;26.53;57.30;100621.90;1749493;79;21027;-77
2021/06/19 09:26:23;;;;;;;6.90;4.10;;;;;;;26.60;57.78;100619.15;1739153;80;22661;-77
2021/06/19 09:29:15;;;;;;;7.22;4.17;;;;;;;26.71;57.58;100611.13;1752014;79;21043;-76
2021/06/19 09:31:52;;;;;;;8.75;4.40;;;;;;;26.81;57.88;100612.80;1737792;79;22579;-78
2021/06/19 09:34:26;;;;;;;11.25;4.95;;;;;;;26.89;57.45;100619.00;1714686;82;21621;-79
2021/06/19 09:36:57;;;;;;;6.47;4.62;;;;;;;26.93;57.06;100612.09;1767390;78;21505;-77
2021/06/19 09:39:30;;;;;;;7.47;4.25;;;;;;;26.93;56.52;100611.56;1745561;79;22658;-81
2021/06/19 09:42:02;;;;;;;6.05;4.10;;;;;;;26.92;57.17;100613.95;1751223;79;21015;-78
2021/06/19 09:44:44;;;;;;;7.85;4.08;;;;;;;27.02;57.58;100613.44;1765560;79;21003;-79
2021/06/19 09:47:12;;;;;;;6.95;3.98;;;;;;;27.07;56.74;100595.48;1739622;79;21498;-81
2021/06/19 09:49:42;;;;;;;10.38;3.75;;;;;;;27.10;56.68;100594.20;1760429;79;21052;-78
2021/06/19 09:52:11;;;;;;;7.62;3.62;;;;;;;27.10;56.83;100586.89;1743951;80;22517;-77
2021/06/19 09:54:44;;;;;;;9.18;3.70;;;;;;;27.18;56.85;100589.84;1766661;80;21035;-78
2021/06/19 09:57:18;;;;;;;7.42;3.25;;;;;;;27.32;56.93;100590.54;1744919;79;21088;-77
2021/06/19 09:59:45;;;;;;;5.67;3.02;;;;;;;27.44;55.84;100598.21;1688774;82;21052;-76
2021/06/19 10:02:27;;;;;;;6.45;2.80;;;;;;;27.43;55.47;100581.64;1747817;80;21103;-79
2021/06/19 10:04:58;;;;;;;8.40;2.42;;;;;;;27.36;55.19;100590.38;1756751;79;21783;-75
2021/06/19 10:07:26;;;;;;;10.35;2.85;;;;;;;27.24;55.27;100586.77;1720332;81;21024;-79
2021/06/19 10:09:56;;;;;;;7.37;2.65;;;;;;;27.02;55.25;100590.39;1735676;80;21482;-74
2021/06/19 10:12:30;;;;;;;3.47;2.08;;;;;;;26.80;55.32;100588.11;1736571;80;21011;-73
2021/06/19 10:15:11;;;;;;;7.67;2.50;;;;;;;26.64;54.89;100595.47;1751013;80;21082;-75
2021/06/19 10:17:40;;;;;;;8.00;2.05;;;;;;;26.46;55.11;100592.17;1740278;78;22490;-73
2021/06/19 10:20:10;;;;;;;11.03;2.42;;;;;;;26.38;55.08;100590.27;1739959;80;21030;-73
2021/06/19 10:22:37;;;;;;;3.70;1.80;;;;;;;26.40;55.11;100590.86;1753187;78;21157;-74
2021/06/19 10:25:08;;;;;;;7.37;1.98;;;;;;;26.51;54.17;100590.97;1761962;79;21107;-74
2021/06/19 10:27:37;;;;;;;9.25;2.00;;;;;;;26.64;54.49;100594.12;1738659;79;21045;-72
2021/06/19 10:30:06;;;;;;;5.37;1.87;;;;;;;26.81;52.82;100592.48;1754129;79;22471;-73
2021/06/19 10:32:47;;;;;;;7.47;1.80;;;;;;;26.89;52.43;100587.83;1762592;80;21570;-72
2021/06/19 10:35:17;;;;;;;8.00;1.82;;;;;;;26.85;52.28;100583.92;1763202;79;21022;-74
2021/06/19 10:37:48;;;;;;;9.10;1.90;;;;;;;26.80;52.14;100579.98;1771935;80;21031;-72
2021/06/19 10:40:24;;;;;;;8.90;2.00;;;;;;;26.75;52.58;100582.55;1753956;79;21500;-73
2021/06/19 10:43:14;;;;;;;4.87;1.92;;;;;;;26.75;52.74;100582.55;1758899;79;21821;-76
2021/06/19 10:45:43;;;;;;;12.03;2.55;;;;;;;26.74;52.23;100580.06;1742305;80;21045;-72
2021/06/19 10:48:10;;;;;;;5.20;2.12;;;;;;;26.79;52.77;100580.20;1745731;80;21158;-76
2021/06/19 10:50:41;;;;;;;8.35;1.70;;;;;;;26.87;52.22;100573.67;1747361;80;21028;-75
2021/06/19 10:53:13;;;;;;;6.15;1.70;;;;;;;26.94;52.57;100570.38;1737476;80;20958;-75
2021/06/19 10:55:55;;;;;;;8.78;2.02;;;;;;;27.02;52.23;100560.57;1720184;80;21846;-77
2021/06/19 10:58:33;;;;;;;8.53;1.80;;;;;;;26.96;51.14;100564.20;1751569;80;21003;-75
2021/06/19 11:01:07;;;;;;;8.45;2.10;;;;;;;26.97;51.17;100559.91;1733861;81;21633;-75
2021/06/19 11:03:47;;;;;;;8.53;1.82;;;;;;;27.03;51.35;100552.27;1737892;80;20997;-75
2021/06/19 11:06:26;;;;;;;12.15;2.10;;;;;;;27.22;51.87;100549.56;1714252;80;21040;-75
2021/06/19 11:09:04;;;;;;;9.38;1.87;;;;;;;27.48;50.88;100547.03;1726857;81;21842;-74
2021/06/19 11:12:09;;;;;;;10.30;1.77;;;;;;;27.62;50.17;100544.45;1702445;82;21537;-74
2021/06/19 11:14:47;;;;;;;4.10;1.67;;;;;;;27.80;51.04;100543.62;1722178;82;21006;-75
2021/06/19 11:17:21;;;;;;;7.45;2.00;;;;;;;28.09;50.20;100545.47;1734866;82;21030;-75
2021/06/19 11:19:58;;;;;;;5.10;1.80;;;;;;;28.27;50.03;100542.34;1743113;80;21175;-75
2021/06/19 11:22:40;;;;;;;8.33;1.72;;;;;;;28.54;49.76;100534.61;1727900;80;21834;-78
2021/06/19 11:25:52;;;;;;;11.20;1.92;;;;;;;28.66;48.41;100536.30;1741829;80;20894;-71
2021/06/19 11:28:26;;;;;;;8.18;1.82;;;;;;;28.49;48.59;100529.91;1728501;80;21501;-74
2021/06/19 11:30:54;;;;;;;4.47;1.87;;;;;;;28.36;48.83;100513.81;1750355;80;21067;-75
2021/06/19 11:33:31;;;;;;;5.17;1.85;;;;;;;28.70;48.92;100507.56;1732172;80;21033;-74